sensor_id;sensor_type;location;lat;lon;timestamp;temperature;humidity
82991;DHT22;72806;50.832;4.864;2023-10-13T00:01:20;20.60;95.00
82991;DHT22;72806;50.832;4.864;2023-10-13T00:03:47;20.60;95.00
82991;DHT22;72806;50.832;4.864;2023-10-13T00:06:14;20.60;95.00
82991;DHT22;72806;50.832;4.864;2023-10-13T00:08:43;20.60;95.00
82991;DHT22;72806;50.832;4.864;2023-10-13T00:11:12;20.60;95.10
82991;DHT22;72806;50.832;4.864;2023-10-13T00:13:41;20.60;95.10
82991;DHT22;72806;50.832;4.864;2023-10-13T00:16:16;20.50;95.10
82991;DHT22;72806;50.832;4.864;2023-10-13T00:18:47;20.50;95.10
82991;DHT22;72806;50.832;4.864;2023-10-13T00:21:14;20.50;95.20
82991;DHT22;72806;50.832;4.864;2023-10-13T00:23:51;20.50;95.20
82991;DHT22;72806;50.832;4.864;2023-10-13T00:26:21;20.50;95.20
82991;DHT22;72806;50.832;4.864;2023-10-13T00:28:50;20.50;95.30
82991;DHT22;72806;50.832;4.864;2023-10-13T00:31:25;20.50;95.30
82991;DHT22;72806;50.832;4.864;2023-10-13T00:33:57;20.50;95.30
82991;DHT22;72806;50.832;4.864;2023-10-13T00:36:29;20.60;95.30
82991;DHT22;72806;50.832;4.864;2023-10-13T00:38:58;20.60;95.30
82991;DHT22;72806;50.832;4.864;2023-10-13T00:41:25;20.60;95.40
82991;DHT22;72806;50.832;4.864;2023-10-13T00:44:15;20.60;95.60
82991;DHT22;72806;50.832;4.864;2023-10-13T00:46:44;20.60;95.30
82991;DHT22;72806;50.832;4.864;2023-10-13T00:49:12;20.70;95.30
82991;DHT22;72806;50.832;4.864;2023-10-13T00:51:41;20.70;95.30
82991;DHT22;72806;50.832;4.864;2023-10-13T00:54:15;20.70;95.20
82991;DHT22;72806;50.832;4.864;2023-10-13T00:56:46;20.70;95.20
82991;DHT22;72806;50.832;4.864;2023-10-13T00:59:15;20.70;95.20
82991;DHT22;72806;50.832;4.864;2023-10-13T01:01:42;20.70;95.20
82991;DHT22;72806;50.832;4.864;2023-10-13T01:04:10;20.70;95.20
82991;DHT22;72806;50.832;4.864;2023-10-13T01:06:38;20.70;95.20
82991;DHT22;72806;50.832;4.864;2023-10-13T01:09:06;20.70;95.20
82991;DHT22;72806;50.832;4.864;2023-10-13T01:11:45;20.60;95.20
82991;DHT22;72806;50.832;4.864;2023-10-13T01:14:13;20.70;95.20
82991;DHT22;72806;50.832;4.864;2023-10-13T01:16:43;20.60;95.20
82991;DHT22;72806;50.832;4.864;2023-10-13T01:19:10;20.60;95.30
82991;DHT22;72806;50.832;4.864;2023-10-13T01:21:38;20.60;95.30
82991;DHT22;72806;50.832;4.864;2023-10-13T01:24:08;20.70;95.40
82991;DHT22;72806;50.832;4.864;2023-10-13T01:26:39;20.60;95.40
82991;DHT22;72806;50.832;4.864;2023-10-13T01:29:06;20.70;95.40
82991;DHT22;72806;50.832;4.864;2023-10-13T01:31:40;20.60;95.40
82991;DHT22;72806;50.832;4.864;2023-10-13T01:34:12;20.60;95.40
82991;DHT22;72806;50.832;4.864;2023-10-13T01:36:40;20.60;95.40
82991;DHT22;72806;50.832;4.864;2023-10-13T01:39:09;20.70;95.40
82991;DHT22;72806;50.832;4.864;2023-10-13T01:41:42;20.70;95.40
82991;DHT22;72806;50.832;4.864;2023-10-13T01:44:08;20.70;95.30
82991;DHT22;72806;50.832;4.864;2023-10-13T01:46:37;20.70;95.30
82991;DHT22;72806;50.832;4.864;2023-10-13T01:49:03;20.70;95.30
82991;DHT22;72806;50.832;4.864;2023-10-13T01:51:30;20.70;95.30
82991;DHT22;72806;50.832;4.864;2023-10-13T01:53:56;20.60;95.30
82991;DHT22;72806;50.832;4.864;2023-10-13T01:56:25;20.60;95.20
82991;DHT22;72806;50.832;4.864;2023-10-13T01:58:55;20.60;95.20
82991;DHT22;72806;50.832;4.864;2023-10-13T02:01:22;20.60;95.20
82991;DHT22;72806;50.832;4.864;2023-10-13T02:03:55;20.60;95.30
82991;DHT22;72806;50.832;4.864;2023-10-13T02:06:29;20.60;95.30
82991;DHT22;72806;50.832;4.864;2023-10-13T02:08:59;20.60;95.30
82991;DHT22;72806;50.832;4.864;2023-10-13T02:11:37;20.60;95.30
82991;DHT22;72806;50.832;4.864;2023-10-13T02:14:03;20.50;95.30
82991;DHT22;72806;50.832;4.864;2023-10-13T02:16:30;20.50;95.30
82991;DHT22;72806;50.832;4.864;2023-10-13T02:18:56;20.50;95.40
82991;DHT22;72806;50.832;4.864;2023-10-13T02:21:30;20.50;95.40
82991;DHT22;72806;50.832;4.864;2023-10-13T02:23:57;20.50;95.40
82991;DHT22;72806;50.832;4.864;2023-10-13T02:26:30;20.40;95.50
82991;DHT22;72806;50.832;4.864;2023-10-13T02:28:58;20.40;95.50
82991;DHT22;72806;50.832;4.864;2023-10-13T02:31:27;20.40;95.60
82991;DHT22;72806;50.832;4.864;2023-10-13T02:33:53;20.40;95.60
82991;DHT22;72806;50.832;4.864;2023-10-13T02:36:21;20.40;95.60
82991;DHT22;72806;50.832;4.864;2023-10-13T02:38:48;20.50;95.60
82991;DHT22;72806;50.832;4.864;2023-10-13T02:41:17;20.50;95.60
82991;DHT22;72806;50.832;4.864;2023-10-13T02:43:51;20.50;95.60
82991;DHT22;72806;50.832;4.864;2023-10-13T02:46:20;20.50;95.70
82991;DHT22;72806;50.832;4.864;2023-10-13T02:48:48;20.50;95.70
82991;DHT22;72806;50.832;4.864;2023-10-13T02:51:19;20.50;95.70
82991;DHT22;72806;50.832;4.864;2023-10-13T02:53:51;20.50;95.70
82991;DHT22;72806;50.832;4.864;2023-10-13T02:56:19;20.60;95.70
82991;DHT22;72806;50.832;4.864;2023-10-13T02:58:47;20.60;95.70
82991;DHT22;72806;50.832;4.864;2023-10-13T03:01:20;20.50;95.80
82991;DHT22;72806;50.832;4.864;2023-10-13T03:03:50;20.60;95.80
82991;DHT22;72806;50.832;4.864;2023-10-13T03:06:21;20.60;95.80
82991;DHT22;72806;50.832;4.864;2023-10-13T03:08:49;20.60;95.80
82991;DHT22;72806;50.832;4.864;2023-10-13T03:11:17;20.60;95.80
82991;DHT22;72806;50.832;4.864;2023-10-13T03:13:49;20.60;95.80
82991;DHT22;72806;50.832;4.864;2023-10-13T03:16:18;20.60;95.80
82991;DHT22;72806;50.832;4.864;2023-10-13T03:18:47;20.50;95.80
82991;DHT22;72806;50.832;4.864;2023-10-13T03:21:23;20.50;95.90
82991;DHT22;72806;50.832;4.864;2023-10-13T03:23:58;20.50;95.90
82991;DHT22;72806;50.832;4.864;2023-10-13T03:26:33;20.50;96.20
82991;DHT22;72806;50.832;4.864;2023-10-13T03:29:03;20.50;96.20
82991;DHT22;72806;50.832;4.864;2023-10-13T03:31:33;20.50;96.00
82991;DHT22;72806;50.832;4.864;2023-10-13T03:34:04;20.50;96.00
82991;DHT22;72806;50.832;4.864;2023-10-13T03:36:36;20.60;96.00
82991;DHT22;72806;50.832;4.864;2023-10-13T03:39:16;20.60;96.00
82991;DHT22;72806;50.832;4.864;2023-10-13T03:41:43;20.60;96.00
82991;DHT22;72806;50.832;4.864;2023-10-13T03:44:11;20.60;96.10
82991;DHT22;72806;50.832;4.864;2023-10-13T03:46:43;20.60;96.10
82991;DHT22;72806;50.832;4.864;2023-10-13T03:49:15;20.60;96.10
82991;DHT22;72806;50.832;4.864;2023-10-13T03:51:48;20.60;96.20
82991;DHT22;72806;50.832;4.864;2023-10-13T03:54:15;20.60;96.20
82991;DHT22;72806;50.832;4.864;2023-10-13T03:56:43;20.60;96.20
82991;DHT22;72806;50.832;4.864;2023-10-13T03:59:11;20.60;96.20
82991;DHT22;72806;50.832;4.864;2023-10-13T04:01:45;20.60;96.30
82991;DHT22;72806;50.832;4.864;2023-10-13T04:04:15;20.60;96.30
82991;DHT22;72806;50.832;4.864;2023-10-13T04:07:00;20.60;96.30
82991;DHT22;72806;50.832;4.864;2023-10-13T04:09:46;20.60;96.30
82991;DHT22;72806;50.832;4.864;2023-10-13T04:12:30;20.50;96.30
82991;DHT22;72806;50.832;4.864;2023-10-13T04:15:15;20.50;96.30
82991;DHT22;72806;50.832;4.864;2023-10-13T04:17:48;20.50;96.40
82991;DHT22;72806;50.832;4.864;2023-10-13T04:20:18;20.50;96.40
82991;DHT22;72806;50.832;4.864;2023-10-13T04:22:58;20.50;96.50
82991;DHT22;72806;50.832;4.864;2023-10-13T04:25:44;20.50;96.50
82991;DHT22;72806;50.832;4.864;2023-10-13T04:28:29;20.50;96.50
82991;DHT22;72806;50.832;4.864;2023-10-13T04:31:03;20.50;96.50
82991;DHT22;72806;50.832;4.864;2023-10-13T04:33:38;20.50;96.50
82991;DHT22;72806;50.832;4.864;2023-10-13T04:36:18;20.50;96.60
82991;DHT22;72806;50.832;4.864;2023-10-13T04:39:02;20.50;96.60
82991;DHT22;72806;50.832;4.864;2023-10-13T04:41:42;20.50;96.50
82991;DHT22;72806;50.832;4.864;2023-10-13T04:44:10;20.50;96.50
82991;DHT22;72806;50.832;4.864;2023-10-13T04:46:54;20.50;96.60
82991;DHT22;72806;50.832;4.864;2023-10-13T04:49:36;20.50;96.50
82991;DHT22;72806;50.832;4.864;2023-10-13T04:52:17;20.50;96.50
82991;DHT22;72806;50.832;4.864;2023-10-13T04:55:02;20.50;96.50
82991;DHT22;72806;50.832;4.864;2023-10-13T04:57:42;20.50;96.50
82991;DHT22;72806;50.832;4.864;2023-10-13T05:00:13;20.50;96.40
82991;DHT22;72806;50.832;4.864;2023-10-13T05:02:58;20.50;96.40
82991;DHT22;72806;50.832;4.864;2023-10-13T05:05:43;20.60;96.40
82991;DHT22;72806;50.832;4.864;2023-10-13T05:08:28;20.60;96.40
82991;DHT22;72806;50.832;4.864;2023-10-13T05:11:13;20.60;96.30
82991;DHT22;72806;50.832;4.864;2023-10-13T05:13:57;20.60;96.30
82991;DHT22;72806;50.832;4.864;2023-10-13T05:16:41;20.60;96.30
82991;DHT22;72806;50.832;4.864;2023-10-13T05:19:25;20.60;96.30
82991;DHT22;72806;50.832;4.864;2023-10-13T05:22:10;20.60;96.30
82991;DHT22;72806;50.832;4.864;2023-10-13T05:24:56;20.60;96.30
82991;DHT22;72806;50.832;4.864;2023-10-13T05:27:40;20.60;96.30
82991;DHT22;72806;50.832;4.864;2023-10-13T05:30:24;20.60;96.30
82991;DHT22;72806;50.832;4.864;2023-10-13T05:33:09;20.60;96.30
82991;DHT22;72806;50.832;4.864;2023-10-13T05:35:53;20.60;96.20
82991;DHT22;72806;50.832;4.864;2023-10-13T05:38:49;20.60;96.20
82991;DHT22;72806;50.832;4.864;2023-10-13T05:41:35;20.70;96.20
82991;DHT22;72806;50.832;4.864;2023-10-13T05:44:20;20.70;96.20
82991;DHT22;72806;50.832;4.864;2023-10-13T05:47:18;20.60;96.10
82991;DHT22;72806;50.832;4.864;2023-10-13T05:50:14;20.60;96.10
82991;DHT22;72806;50.832;4.864;2023-10-13T05:52:55;20.60;96.10
82991;DHT22;72806;50.832;4.864;2023-10-13T05:55:39;20.60;96.10
82991;DHT22;72806;50.832;4.864;2023-10-13T05:58:24;20.60;96.10
82991;DHT22;72806;50.832;4.864;2023-10-13T06:01:12;20.50;96.00
82991;DHT22;72806;50.832;4.864;2023-10-13T06:03:57;20.50;96.00
82991;DHT22;72806;50.832;4.864;2023-10-13T06:06:41;20.50;95.90
82991;DHT22;72806;50.832;4.864;2023-10-13T06:09:25;20.50;95.90
82991;DHT22;72806;50.832;4.864;2023-10-13T06:12:09;20.50;95.80
82991;DHT22;72806;50.832;4.864;2023-10-13T06:14:55;20.50;95.80
82991;DHT22;72806;50.832;4.864;2023-10-13T06:17:39;20.50;95.80
82991;DHT22;72806;50.832;4.864;2023-10-13T06:20:23;20.50;95.90
82991;DHT22;72806;50.832;4.864;2023-10-13T06:23:07;20.50;95.90
82991;DHT22;72806;50.832;4.864;2023-10-13T06:25:52;20.60;95.90
82991;DHT22;72806;50.832;4.864;2023-10-13T06:28:36;20.60;95.80
82991;DHT22;72806;50.832;4.864;2023-10-13T06:31:13;20.60;95.90
82991;DHT22;72806;50.832;4.864;2023-10-13T06:33:48;20.60;95.80
82991;DHT22;72806;50.832;4.864;2023-10-13T06:36:15;20.60;95.80
82991;DHT22;72806;50.832;4.864;2023-10-13T06:38:43;20.70;95.90
82991;DHT22;72806;50.832;4.864;2023-10-13T06:41:10;20.70;95.90
82991;DHT22;72806;50.832;4.864;2023-10-13T06:43:45;20.70;95.80
82991;DHT22;72806;50.832;4.864;2023-10-13T06:46:27;20.80;95.80
82991;DHT22;72806;50.832;4.864;2023-10-13T06:48:54;20.80;95.70
82991;DHT22;72806;50.832;4.864;2023-10-13T06:51:25;20.90;95.70
82991;DHT22;72806;50.832;4.864;2023-10-13T06:53:56;20.90;95.60
82991;DHT22;72806;50.832;4.864;2023-10-13T06:56:24;20.90;95.50
82991;DHT22;72806;50.832;4.864;2023-10-13T06:58:54;21.00;95.40
82991;DHT22;72806;50.832;4.864;2023-10-13T07:01:26;21.00;95.30
82991;DHT22;72806;50.832;4.864;2023-10-13T07:03:54;21.00;95.10
82991;DHT22;72806;50.832;4.864;2023-10-13T07:06:26;21.10;95.00
82991;DHT22;72806;50.832;4.864;2023-10-13T07:08:53;21.10;94.90
82991;DHT22;72806;50.832;4.864;2023-10-13T07:11:25;21.20;94.70
82991;DHT22;72806;50.832;4.864;2023-10-13T07:14:01;21.20;94.60
82991;DHT22;72806;50.832;4.864;2023-10-13T07:16:43;21.30;94.60
82991;DHT22;72806;50.832;4.864;2023-10-13T07:19:12;21.40;94.80
82991;DHT22;72806;50.832;4.864;2023-10-13T07:21:43;21.60;94.70
82991;DHT22;72806;50.832;4.864;2023-10-13T07:24:11;21.80;94.20
82991;DHT22;72806;50.832;4.864;2023-10-13T07:26:39;21.80;93.70
82991;DHT22;72806;50.832;4.864;2023-10-13T07:29:11;21.80;93.60
82991;DHT22;72806;50.832;4.864;2023-10-13T07:31:40;21.90;93.50
82991;DHT22;72806;50.832;4.864;2023-10-13T07:34:10;22.00;93.20
82991;DHT22;72806;50.832;4.864;2023-10-13T07:36:54;22.10;93.00
82991;DHT22;72806;50.832;4.864;2023-10-13T07:39:24;22.10;92.70
82991;DHT22;72806;50.832;4.864;2023-10-13T07:41:52;22.20;92.60
82991;DHT22;72806;50.832;4.864;2023-10-13T07:44:29;22.30;92.30
82991;DHT22;72806;50.832;4.864;2023-10-13T07:47:01;22.50;92.10
82991;DHT22;72806;50.832;4.864;2023-10-13T07:49:32;22.60;91.90
82991;DHT22;72806;50.832;4.864;2023-10-13T07:52:05;22.80;91.50
82991;DHT22;72806;50.832;4.864;2023-10-13T07:54:50;22.90;91.10
82991;DHT22;72806;50.832;4.864;2023-10-13T07:57:25;23.20;91.60
82991;DHT22;72806;50.832;4.864;2023-10-13T07:59:55;23.50;91.70
82991;DHT22;72806;50.832;4.864;2023-10-13T08:02:35;23.90;91.20
82991;DHT22;72806;50.832;4.864;2023-10-13T08:05:16;24.20;90.60
82991;DHT22;72806;50.832;4.864;2023-10-13T08:07:50;24.50;90.20
82991;DHT22;72806;50.832;4.864;2023-10-13T08:10:21;24.70;88.80
82991;DHT22;72806;50.832;4.864;2023-10-13T08:12:55;24.90;86.90
82991;DHT22;72806;50.832;4.864;2023-10-13T08:15:24;25.10;85.50
82991;DHT22;72806;50.832;4.864;2023-10-13T08:17:59;25.20;84.00
82991;DHT22;72806;50.832;4.864;2023-10-13T08:20:30;25.10;80.60
82991;DHT22;72806;50.832;4.864;2023-10-13T08:23:04;24.90;79.10
82991;DHT22;72806;50.832;4.864;2023-10-13T08:25:39;24.70;79.00
82991;DHT22;72806;50.832;4.864;2023-10-13T08:28:20;24.80;78.90
82991;DHT22;72806;50.832;4.864;2023-10-13T08:31:19;24.70;77.20
82991;DHT22;72806;50.832;4.864;2023-10-13T08:33:53;24.40;76.00
82991;DHT22;72806;50.832;4.864;2023-10-13T08:36:31;24.20;75.90
82991;DHT22;72806;50.832;4.864;2023-10-13T08:38:58;24.10;75.60
82991;DHT22;72806;50.832;4.864;2023-10-13T08:41:46;24.00;75.60
82991;DHT22;72806;50.832;4.864;2023-10-13T08:44:26;23.90;75.50
82991;DHT22;72806;50.832;4.864;2023-10-13T08:46:59;23.80;75.00
82991;DHT22;72806;50.832;4.864;2023-10-13T08:49:46;23.70;75.00
82991;DHT22;72806;50.832;4.864;2023-10-13T08:52:18;23.60;74.90
82991;DHT22;72806;50.832;4.864;2023-10-13T08:55:12;23.50;75.30
82991;DHT22;72806;50.832;4.864;2023-10-13T08:58:05;23.50;75.00
82991;DHT22;72806;50.832;4.864;2023-10-13T09:00:39;23.40;75.10
82991;DHT22;72806;50.832;4.864;2023-10-13T09:03:22;23.40;75.40
82991;DHT22;72806;50.832;4.864;2023-10-13T09:06:04;23.50;75.70
82991;DHT22;72806;50.832;4.864;2023-10-13T09:08:33;23.60;75.30
82991;DHT22;72806;50.832;4.864;2023-10-13T09:11:10;23.60;75.00
82991;DHT22;72806;50.832;4.864;2023-10-13T09:13:38;23.70;74.80
82991;DHT22;72806;50.832;4.864;2023-10-13T09:16:14;23.70;74.90
82991;DHT22;72806;50.832;4.864;2023-10-13T09:19:07;23.80;74.70
82991;DHT22;72806;50.832;4.864;2023-10-13T09:21:41;23.90;74.30
82991;DHT22;72806;50.832;4.864;2023-10-13T09:24:20;23.90;74.10
82991;DHT22;72806;50.832;4.864;2023-10-13T09:26:55;23.90;73.60
82991;DHT22;72806;50.832;4.864;2023-10-13T09:29:26;23.90;73.60
82991;DHT22;72806;50.832;4.864;2023-10-13T09:32:02;23.90;73.40
82991;DHT22;72806;50.832;4.864;2023-10-13T09:34:28;23.90;73.60
82991;DHT22;72806;50.832;4.864;2023-10-13T09:36:59;24.00;73.30
82991;DHT22;72806;50.832;4.864;2023-10-13T09:39:28;24.00;73.30
82991;DHT22;72806;50.832;4.864;2023-10-13T09:42:07;23.90;73.00
82991;DHT22;72806;50.832;4.864;2023-10-13T09:44:36;23.90;72.90
82991;DHT22;72806;50.832;4.864;2023-10-13T09:47:09;23.80;72.60
82991;DHT22;72806;50.832;4.864;2023-10-13T09:49:44;23.80;72.70
82991;DHT22;72806;50.832;4.864;2023-10-13T09:52:14;23.80;72.90
82991;DHT22;72806;50.832;4.864;2023-10-13T09:54:53;23.80;72.80
82991;DHT22;72806;50.832;4.864;2023-10-13T09:57:28;23.80;72.60
82991;DHT22;72806;50.832;4.864;2023-10-13T10:00:06;23.80;72.60
82991;DHT22;72806;50.832;4.864;2023-10-13T10:02:53;23.80;72.60
82991;DHT22;72806;50.832;4.864;2023-10-13T10:05:24;23.80;72.40
82991;DHT22;72806;50.832;4.864;2023-10-13T10:07:58;23.80;72.60
82991;DHT22;72806;50.832;4.864;2023-10-13T10:10:32;23.80;72.50
82991;DHT22;72806;50.832;4.864;2023-10-13T10:13:12;23.90;72.30
82991;DHT22;72806;50.832;4.864;2023-10-13T10:15:44;23.90;72.30
82991;DHT22;72806;50.832;4.864;2023-10-13T10:18:18;24.00;72.00
82991;DHT22;72806;50.832;4.864;2023-10-13T10:20:48;24.10;71.80
82991;DHT22;72806;50.832;4.864;2023-10-13T10:23:29;24.10;71.40
82991;DHT22;72806;50.832;4.864;2023-10-13T10:26:09;24.20;71.60
82991;DHT22;72806;50.832;4.864;2023-10-13T10:28:40;24.40;71.50
82991;DHT22;72806;50.832;4.864;2023-10-13T10:31:09;24.50;70.70
82991;DHT22;72806;50.832;4.864;2023-10-13T10:33:38;24.50;70.20
82991;DHT22;72806;50.832;4.864;2023-10-13T10:36:06;24.60;69.40
82991;DHT22;72806;50.832;4.864;2023-10-13T10:38:52;24.60;69.40
82991;DHT22;72806;50.832;4.864;2023-10-13T10:41:26;24.60;69.40
82991;DHT22;72806;50.832;4.864;2023-10-13T10:44:09;24.70;69.00
82991;DHT22;72806;50.832;4.864;2023-10-13T10:46:41;24.70;68.70
82991;DHT22;72806;50.832;4.864;2023-10-13T10:49:18;24.80;68.30
82991;DHT22;72806;50.832;4.864;2023-10-13T10:51:57;24.90;67.90
82991;DHT22;72806;50.832;4.864;2023-10-13T10:54:28;24.90;66.90
82991;DHT22;72806;50.832;4.864;2023-10-13T10:56:57;24.90;67.10
82991;DHT22;72806;50.832;4.864;2023-10-13T10:59:36;25.00;67.20
82991;DHT22;72806;50.832;4.864;2023-10-13T11:02:05;25.00;66.90
82991;DHT22;72806;50.832;4.864;2023-10-13T11:04:44;25.10;66.30
82991;DHT22;72806;50.832;4.864;2023-10-13T11:07:21;25.00;65.20
82991;DHT22;72806;50.832;4.864;2023-10-13T11:09:50;25.00;64.90
82991;DHT22;72806;50.832;4.864;2023-10-13T11:12:30;25.00;64.80
82991;DHT22;72806;50.832;4.864;2023-10-13T11:15:04;24.90;64.60
82991;DHT22;72806;50.832;4.864;2023-10-13T11:17:41;25.00;64.50
82991;DHT22;72806;50.832;4.864;2023-10-13T11:20:11;25.00;64.40
82991;DHT22;72806;50.832;4.864;2023-10-13T11:22:45;25.10;64.50
82991;DHT22;72806;50.832;4.864;2023-10-13T11:25:21;25.20;63.90
82991;DHT22;72806;50.832;4.864;2023-10-13T11:27:49;25.20;63.60
82991;DHT22;72806;50.832;4.864;2023-10-13T11:30:24;25.30;63.00
82991;DHT22;72806;50.832;4.864;2023-10-13T11:33:08;25.40;62.70
82991;DHT22;72806;50.832;4.864;2023-10-13T11:35:36;25.40;62.30
82991;DHT22;72806;50.832;4.864;2023-10-13T11:38:21;25.40;61.50
82991;DHT22;72806;50.832;4.864;2023-10-13T11:40:54;25.30;61.10
82991;DHT22;72806;50.832;4.864;2023-10-13T11:43:41;25.20;60.50
82991;DHT22;72806;50.832;4.864;2023-10-13T11:46:23;25.20;60.70
82991;DHT22;72806;50.832;4.864;2023-10-13T11:49:23;25.10;60.70
82991;DHT22;72806;50.832;4.864;2023-10-13T11:52:03;25.10;60.80
82991;DHT22;72806;50.832;4.864;2023-10-13T11:54:49;25.00;60.60
82991;DHT22;72806;50.832;4.864;2023-10-13T11:57:18;25.00;61.00
82991;DHT22;72806;50.832;4.864;2023-10-13T11:59:45;25.00;61.20
82991;DHT22;72806;50.832;4.864;2023-10-13T12:02:20;25.00;60.70
82991;DHT22;72806;50.832;4.864;2023-10-13T12:05:05;25.00;60.70
82991;DHT22;72806;50.832;4.864;2023-10-13T12:07:38;25.00;60.80
82991;DHT22;72806;50.832;4.864;2023-10-13T12:10:14;25.10;61.10
82991;DHT22;72806;50.832;4.864;2023-10-13T12:13:01;25.20;61.30
82991;DHT22;72806;50.832;4.864;2023-10-13T12:15:34;25.30;61.30
82991;DHT22;72806;50.832;4.864;2023-10-13T12:18:14;25.50;61.00
82991;DHT22;72806;50.832;4.864;2023-10-13T12:20:41;25.70;61.00
82991;DHT22;72806;50.832;4.864;2023-10-13T12:23:11;25.80;60.00
82991;DHT22;72806;50.832;4.864;2023-10-13T12:25:43;25.90;59.70
82991;DHT22;72806;50.832;4.864;2023-10-13T12:28:28;25.80;59.30
82991;DHT22;72806;50.832;4.864;2023-10-13T12:31:03;25.80;59.20
82991;DHT22;72806;50.832;4.864;2023-10-13T12:33:32;25.70;59.00
82991;DHT22;72806;50.832;4.864;2023-10-13T12:36:06;25.60;58.80
82991;DHT22;72806;50.832;4.864;2023-10-13T12:38:35;25.60;58.70
82991;DHT22;72806;50.832;4.864;2023-10-13T12:41:26;25.50;58.80
82991;DHT22;72806;50.832;4.864;2023-10-13T12:44:12;25.40;58.70
82991;DHT22;72806;50.832;4.864;2023-10-13T12:46:56;25.30;58.60
82991;DHT22;72806;50.832;4.864;2023-10-13T12:49:41;25.30;58.50
82991;DHT22;72806;50.832;4.864;2023-10-13T12:52:23;25.20;58.60
82991;DHT22;72806;50.832;4.864;2023-10-13T12:54:52;25.10;58.60
82991;DHT22;72806;50.832;4.864;2023-10-13T12:57:31;25.10;58.70
82991;DHT22;72806;50.832;4.864;2023-10-13T13:00:00;25.00;58.50
82991;DHT22;72806;50.832;4.864;2023-10-13T13:02:42;25.00;58.70
82991;DHT22;72806;50.832;4.864;2023-10-13T13:05:09;25.00;58.80
82991;DHT22;72806;50.832;4.864;2023-10-13T13:07:39;24.90;58.80
82991;DHT22;72806;50.832;4.864;2023-10-13T13:10:13;24.90;58.90
82991;DHT22;72806;50.832;4.864;2023-10-13T13:12:40;24.90;58.70
82991;DHT22;72806;50.832;4.864;2023-10-13T13:15:10;24.90;58.70
82991;DHT22;72806;50.832;4.864;2023-10-13T13:17:40;24.90;58.70
82991;DHT22;72806;50.832;4.864;2023-10-13T13:20:08;24.80;58.60
82991;DHT22;72806;50.832;4.864;2023-10-13T13:22:52;24.70;58.40
82991;DHT22;72806;50.832;4.864;2023-10-13T13:25:19;24.70;58.20
82991;DHT22;72806;50.832;4.864;2023-10-13T13:27:51;24.60;58.30
82991;DHT22;72806;50.832;4.864;2023-10-13T13:30:19;24.60;58.60
82991;DHT22;72806;50.832;4.864;2023-10-13T13:32:47;24.60;58.60
82991;DHT22;72806;50.832;4.864;2023-10-13T13:35:16;24.60;58.70
82991;DHT22;72806;50.832;4.864;2023-10-13T13:37:44;24.50;58.60
82991;DHT22;72806;50.832;4.864;2023-10-13T13:40:13;24.50;58.60
82991;DHT22;72806;50.832;4.864;2023-10-13T13:42:47;24.50;58.80
82991;DHT22;72806;50.832;4.864;2023-10-13T13:45:14;24.50;58.70
82991;DHT22;72806;50.832;4.864;2023-10-13T13:47:49;24.50;58.70
82991;DHT22;72806;50.832;4.864;2023-10-13T13:50:21;24.50;58.60
82991;DHT22;72806;50.832;4.864;2023-10-13T13:52:51;24.50;58.50
82991;DHT22;72806;50.832;4.864;2023-10-13T13:55:19;24.50;58.50
82991;DHT22;72806;50.832;4.864;2023-10-13T13:57:46;24.60;58.50
82991;DHT22;72806;50.832;4.864;2023-10-13T14:00:16;24.60;58.30
82991;DHT22;72806;50.832;4.864;2023-10-13T14:03:04;24.50;58.40
82991;DHT22;72806;50.832;4.864;2023-10-13T14:05:31;24.60;58.40
82991;DHT22;72806;50.832;4.864;2023-10-13T14:07:58;24.50;58.50
82991;DHT22;72806;50.832;4.864;2023-10-13T14:10:25;24.50;58.50
82991;DHT22;72806;50.832;4.864;2023-10-13T14:13:11;24.60;58.50
82991;DHT22;72806;50.832;4.864;2023-10-13T14:15:39;24.60;58.50
82991;DHT22;72806;50.832;4.864;2023-10-13T14:18:10;24.60;59.10
82991;DHT22;72806;50.832;4.864;2023-10-13T14:20:40;24.60;58.60
82991;DHT22;72806;50.832;4.864;2023-10-13T14:23:08;24.60;58.60
82991;DHT22;72806;50.832;4.864;2023-10-13T14:25:38;24.60;58.50
82991;DHT22;72806;50.832;4.864;2023-10-13T14:28:10;24.60;58.50
82991;DHT22;72806;50.832;4.864;2023-10-13T14:30:43;24.60;58.60
82991;DHT22;72806;50.832;4.864;2023-10-13T14:33:12;24.60;58.50
82991;DHT22;72806;50.832;4.864;2023-10-13T14:35:39;24.60;58.50
82991;DHT22;72806;50.832;4.864;2023-10-13T14:38:06;24.60;58.40
82991;DHT22;72806;50.832;4.864;2023-10-13T14:40:33;24.60;58.40
82991;DHT22;72806;50.832;4.864;2023-10-13T14:43:00;24.60;58.40
82991;DHT22;72806;50.832;4.864;2023-10-13T14:45:27;24.60;58.40
82991;DHT22;72806;50.832;4.864;2023-10-13T14:47:54;24.60;58.50
82991;DHT22;72806;50.832;4.864;2023-10-13T14:50:22;24.50;58.40
82991;DHT22;72806;50.832;4.864;2023-10-13T14:52:50;24.50;58.50
82991;DHT22;72806;50.832;4.864;2023-10-13T14:55:17;24.50;58.50
82991;DHT22;72806;50.832;4.864;2023-10-13T14:57:59;24.50;58.50
82991;DHT22;72806;50.832;4.864;2023-10-13T15:00:30;24.40;58.60
82991;DHT22;72806;50.832;4.864;2023-10-13T15:02:58;24.50;58.70
82991;DHT22;72806;50.832;4.864;2023-10-13T15:05:28;24.50;58.80
82991;DHT22;72806;50.832;4.864;2023-10-13T15:07:57;24.40;58.60
82991;DHT22;72806;50.832;4.864;2023-10-13T15:10:26;24.30;58.60
82991;DHT22;72806;50.832;4.864;2023-10-13T15:12:52;24.30;58.70
82991;DHT22;72806;50.832;4.864;2023-10-13T15:15:19;24.30;58.70
82991;DHT22;72806;50.832;4.864;2023-10-13T15:17:46;24.20;58.80
82991;DHT22;72806;50.832;4.864;2023-10-13T15:20:14;24.20;59.00
82991;DHT22;72806;50.832;4.864;2023-10-13T15:22:44;24.10;59.20
82991;DHT22;72806;50.832;4.864;2023-10-13T15:25:14;24.00;59.40
82991;DHT22;72806;50.832;4.864;2023-10-13T15:27:56;24.00;59.70
82991;DHT22;72806;50.832;4.864;2023-10-13T15:30:26;23.90;60.10
82991;DHT22;72806;50.832;4.864;2023-10-13T15:32:56;23.80;60.70
82991;DHT22;72806;50.832;4.864;2023-10-13T15:35:24;23.70;61.30
82991;DHT22;72806;50.832;4.864;2023-10-13T15:37:55;23.60;61.60
82991;DHT22;72806;50.832;4.864;2023-10-13T15:40:22;23.50;62.10
82991;DHT22;72806;50.832;4.864;2023-10-13T15:42:53;23.50;62.70
82991;DHT22;72806;50.832;4.864;2023-10-13T15:45:25;23.40;63.20
82991;DHT22;72806;50.832;4.864;2023-10-13T15:47:58;23.30;63.70
82991;DHT22;72806;50.832;4.864;2023-10-13T15:50:35;23.20;64.30
82991;DHT22;72806;50.832;4.864;2023-10-13T15:53:07;23.10;65.00
82991;DHT22;72806;50.832;4.864;2023-10-13T15:55:35;23.00;65.40
82991;DHT22;72806;50.832;4.864;2023-10-13T15:58:03;22.90;65.90
82991;DHT22;72806;50.832;4.864;2023-10-13T16:00:34;22.80;66.50
82991;DHT22;72806;50.832;4.864;2023-10-13T16:03:01;22.80;66.90
82991;DHT22;72806;50.832;4.864;2023-10-13T16:05:36;22.70;67.10
82991;DHT22;72806;50.832;4.864;2023-10-13T16:08:06;22.70;67.50
82991;DHT22;72806;50.832;4.864;2023-10-13T16:10:37;22.70;67.90
82991;DHT22;72806;50.832;4.864;2023-10-13T16:13:04;22.70;68.20